createdAt,value
2018-02-10T00:02:22.837Z,25.10
2018-02-10T00:04:50.389Z,25.90
2018-02-10T00:07:17.983Z,25.50
2018-02-10T00:09:46.328Z,25.20
2018-02-10T00:12:13.938Z,25.30
2018-02-10T00:14:41.513Z,25.40
2018-02-10T00:17:09.128Z,25.40
2018-02-10T00:19:36.704Z,25.40
2018-02-10T00:22:05.006Z,25.30
2018-02-10T00:24:32.583Z,25.30
2018-02-10T00:27:00.229Z,25.30
2018-02-10T00:29:27.877Z,25.70
2018-02-10T00:31:55.595Z,25.60
2018-02-10T00:34:23.165Z,25.50
2018-02-10T00:36:50.730Z,25.60
2018-02-10T00:39:18.263Z,25.70
2018-02-10T00:41:45.861Z,25.40
2018-02-10T00:44:14.204Z,25.50
2018-02-10T00:46:41.791Z,25.40
2018-02-10T00:49:09.449Z,25.60
2018-02-10T00:51:37.198Z,25.60
2018-02-10T00:54:04.764Z,25.80
2018-02-10T00:56:32.348Z,25.50
2018-02-10T00:59:00.653Z,25.50
2018-02-10T01:01:28.249Z,25.50
2018-02-10T01:03:55.862Z,25.60
2018-02-10T01:06:23.423Z,25.80
2018-02-10T01:08:51.024Z,25.90
2018-02-10T01:11:18.594Z,25.70
2018-02-10T01:13:47.686Z,25.60
2018-02-10T01:16:15.241Z,25.60
2018-02-10T01:18:42.873Z,25.60
2018-02-10T01:21:10.538Z,25.50
2018-02-10T01:23:38.193Z,25.50
2018-02-10T01:26:05.823Z,25.50
2018-02-10T01:28:34.141Z,25.10
2018-02-10T01:31:01.727Z,25.10
2018-02-10T01:33:29.457Z,25.20
2018-02-10T01:35:57.144Z,25.10
2018-02-10T01:38:24.810Z,25.00
2018-02-10T01:40:52.392Z,25.00
2018-02-10T01:43:19.953Z,24.90
2018-02-10T01:45:47.672Z,24.90
2018-02-10T01:48:15.308Z,25.00
2018-02-10T01:50:42.845Z,24.90
2018-02-10T01:53:11.157Z,24.90
2018-02-10T01:55:38.761Z,25.00
2018-02-10T01:58:06.327Z,24.90
2018-02-10T02:00:34.659Z,24.80
2018-02-10T02:03:02.227Z,24.80
2018-02-10T02:05:29.773Z,25.00
2018-02-10T02:07:57.551Z,24.90
2018-02-10T02:10:25.109Z,24.80
2018-02-10T02:12:52.701Z,25.00
2018-02-10T02:15:20.731Z,25.00
2018-02-10T02:17:48.285Z,25.50
2018-02-10T02:20:16.061Z,25.00
2018-02-10T02:22:44.501Z,24.90
2018-02-10T02:25:12.849Z,25.00
2018-02-10T02:27:40.449Z,25.00
2018-02-10T02:30:09.019Z,24.80
2018-02-10T02:32:37.361Z,24.70
2018-02-10T02:35:04.982Z,24.80
2018-02-10T02:37:32.529Z,24.90
2018-02-10T02:40:00.888Z,24.70
2018-02-10T02:42:28.452Z,24.80
2018-02-10T02:44:56.732Z,24.80
2018-02-10T02:47:26.107Z,24.80
2018-02-10T02:49:53.700Z,24.90
2018-02-10T02:52:22.225Z,24.90
2018-02-10T02:54:49.790Z,24.90
2018-02-10T02:57:17.431Z,24.70
2018-02-10T02:59:45.143Z,24.60
2018-02-10T03:02:12.693Z,24.80
2018-02-10T03:04:40.361Z,24.50
2018-02-10T03:07:07.915Z,24.60
2018-02-10T03:09:35.501Z,24.60
2018-02-10T03:12:03.821Z,24.60
2018-02-10T03:14:31.407Z,24.60
2018-02-10T03:16:59.055Z,24.60
2018-02-10T03:19:27.529Z,24.40
2018-02-10T03:21:55.215Z,24.40
2018-02-10T03:24:22.863Z,24.40
2018-02-10T03:26:50.447Z,24.70
2018-02-10T03:29:17.993Z,24.30
2018-02-10T03:31:45.709Z,24.50
2018-02-10T03:34:13.272Z,24.50
2018-02-10T03:36:40.871Z,24.40
2018-02-10T03:39:08.469Z,24.30
2018-02-10T03:41:36.791Z,24.60
2018-02-10T03:44:04.420Z,24.20
2018-02-10T03:46:32.025Z,24.20
2018-02-10T03:48:59.611Z,24.00
2018-02-10T03:51:27.237Z,24.20
2018-02-10T03:53:55.073Z,24.00
2018-02-10T03:56:22.645Z,24.20
2018-02-10T03:58:50.233Z,24.40
2018-02-10T04:01:17.871Z,24.30
2018-02-10T04:03:45.433Z,24.10
2018-02-10T04:06:13.125Z,24.10
2018-02-10T04:08:40.845Z,24.20
2018-02-10T04:11:08.401Z,24.30
2018-02-10T04:13:36.047Z,24.20
2018-02-10T04:16:04.353Z,24.20
2018-02-10T04:18:31.913Z,24.30
2018-02-10T04:20:59.523Z,24.20
2018-02-10T04:23:27.553Z,24.20
2018-02-10T04:25:55.166Z,24.30
2018-02-10T04:28:23.495Z,24.30
2018-02-10T04:30:51.085Z,24.30
2018-02-10T04:33:18.621Z,24.40
2018-02-10T04:35:46.358Z,24.50
2018-02-10T04:38:13.982Z,24.50
2018-02-10T04:40:42.338Z,23.90
2018-02-10T04:43:10.030Z,24.00
2018-02-10T04:45:38.381Z,24.00
2018-02-10T04:48:06.028Z,24.00
2018-02-10T04:50:33.607Z,24.00
2018-02-10T04:53:01.937Z,23.90
2018-02-10T04:55:29.488Z,24.00
2018-02-10T04:57:57.074Z,23.60
2018-02-10T05:00:25.026Z,23.50
2018-02-10T05:02:52.633Z,23.60
2018-02-10T05:05:21.014Z,23.60
2018-02-10T05:07:48.563Z,23.60
2018-02-10T05:10:16.176Z,23.60
2018-02-10T05:12:44.378Z,23.60
2018-02-10T05:15:12.074Z,23.70
2018-02-10T05:17:39.858Z,23.70
2018-02-10T05:20:08.258Z,23.60
2018-02-10T05:22:35.864Z,23.60
2018-02-10T05:25:03.530Z,23.60
2018-02-10T05:27:31.094Z,23.60
2018-02-10T05:29:58.678Z,23.60
2018-02-10T05:32:27.878Z,23.60
2018-02-10T05:34:55.438Z,23.60
2018-02-10T05:37:23.784Z,23.60
2018-02-10T05:39:51.350Z,23.50
2018-02-10T05:42:18.965Z,23.90
2018-02-10T05:44:46.580Z,24.20
2018-02-10T05:47:14.152Z,24.00
2018-02-10T05:49:42.530Z,24.00
2018-02-10T05:52:11.159Z,24.00
2018-02-10T05:54:38.728Z,24.00
2018-02-10T05:57:06.328Z,23.90
2018-02-10T05:59:34.653Z,24.40
2018-02-10T06:02:02.499Z,24.10
2018-02-10T06:04:30.174Z,24.00
2018-02-10T06:06:57.923Z,24.00
2018-02-10T06:09:25.613Z,24.00
2018-02-10T06:11:53.457Z,23.80
2018-02-10T06:14:20.995Z,24.00
2018-02-10T06:16:49.461Z,23.60
2018-02-10T06:19:17.259Z,23.60
2018-02-10T06:21:44.794Z,23.60
2018-02-10T06:24:13.154Z,23.70
2018-02-10T06:26:42.842Z,23.70
2018-02-10T06:29:10.400Z,23.70
2018-02-10T06:31:37.997Z,23.70
2018-02-10T06:34:06.399Z,23.70
2018-02-10T06:36:33.951Z,23.70
2018-02-10T06:39:02.281Z,24.60
2018-02-10T06:41:30.071Z,24.70
2018-02-10T06:43:57.611Z,25.20
2018-02-10T06:46:25.243Z,25.10
2018-02-10T06:48:52.802Z,24.80
2018-02-10T06:51:20.379Z,24.80
2018-02-10T06:53:47.967Z,24.80
2018-02-10T06:56:15.629Z,24.80
2018-02-10T06:58:43.331Z,24.70
2018-02-10T07:01:11.676Z,24.80
2018-02-10T07:03:39.347Z,24.80
2018-02-10T07:06:07.767Z,24.90
2018-02-10T07:08:35.381Z,24.90
2018-02-10T07:11:08.352Z,25.30
2018-02-10T07:13:36.693Z,25.50
2018-02-10T07:16:04.303Z,25.60
2018-02-10T07:18:31.973Z,26.50
2018-02-10T07:21:00.488Z,27.10
2018-02-10T07:23:28.039Z,27.20
2018-02-10T07:25:55.815Z,30.40
2018-02-10T07:28:23.401Z,34.30
2018-02-10T07:30:50.999Z,36.50
2018-02-10T07:33:19.335Z,32.00
2018-02-10T07:35:46.923Z,32.00
2018-02-10T07:38:14.479Z,30.50
2018-02-10T07:40:42.077Z,29.00
2018-02-10T07:43:09.815Z,29.00
2018-02-10T07:45:37.368Z,29.00
2018-02-10T07:48:05.065Z,28.90
2018-02-10T07:50:32.689Z,28.90
2018-02-10T07:53:00.251Z,28.80
2018-02-10T07:55:27.813Z,28.80
2018-02-10T07:57:55.388Z,28.80
2018-02-10T08:00:23.721Z,28.80
2018-02-10T08:02:51.387Z,28.80
2018-02-10T08:05:19.212Z,28.80
2018-02-10T08:07:46.809Z,28.70
2018-02-10T08:10:14.345Z,28.70
2018-02-10T08:12:41.955Z,28.70
2018-02-10T08:15:10.279Z,28.50
2018-02-10T08:17:37.885Z,28.70
2018-02-10T08:20:05.813Z,28.70
2018-02-10T08:22:33.391Z,28.70
2018-02-10T08:25:00.995Z,28.70
2018-02-10T08:27:29.334Z,26.30
2018-02-10T08:29:56.923Z,26.30
2018-02-10T08:32:24.485Z,26.40
2018-02-10T08:34:52.027Z,23.60
2018-02-10T08:37:20.008Z,26.50
2018-02-10T08:39:48.333Z,26.30
2018-02-10T08:42:15.945Z,26.40
2018-02-10T08:44:43.503Z,26.70
2018-02-10T08:47:11.097Z,26.70
2018-02-10T08:49:38.669Z,26.70
2018-02-10T08:52:06.235Z,26.70
2018-02-10T08:54:33.844Z,26.40
2018-02-10T08:57:01.429Z,26.50
2018-02-10T08:59:29.041Z,26.30
2018-02-10T09:01:56.617Z,26.10
2018-02-10T09:04:25.163Z,25.70
2018-02-10T09:06:52.716Z,25.80
2018-02-10T09:09:20.407Z,25.50
2018-02-10T09:11:47.972Z,25.60
2018-02-10T09:14:15.582Z,25.50
2018-02-10T09:16:43.375Z,25.50
2018-02-10T09:19:10.965Z,25.30
2018-02-10T09:21:38.654Z,25.20
2018-02-10T09:24:06.949Z,24.90
2018-02-10T09:26:34.760Z,24.90
2018-02-10T09:29:03.113Z,25.00
2018-02-10T09:31:30.664Z,25.10
2018-02-10T09:33:58.274Z,24.80
2018-02-10T09:36:25.889Z,24.60
2018-02-10T09:38:53.722Z,24.80
2018-02-10T09:41:22.164Z,24.60
2018-02-10T09:43:49.694Z,24.50
2018-02-10T09:46:17.303Z,24.60
2018-02-10T09:48:44.870Z,24.50
2018-02-10T09:51:13.240Z,24.20
2018-02-10T09:53:41.648Z,24.10
2018-02-10T09:56:09.236Z,24.20
2018-02-10T09:58:36.793Z,23.90
2018-02-10T10:01:04.403Z,23.90
2018-02-10T10:03:31.985Z,23.90
2018-02-10T10:05:59.565Z,23.90
2018-02-10T10:08:29.847Z,23.90
2018-02-10T10:10:58.167Z,24.10
2018-02-10T10:13:25.839Z,23.90
2018-02-10T10:15:53.590Z,23.90
2018-02-10T10:18:21.158Z,23.90
2018-02-10T10:20:48.739Z,23.90
2018-02-10T10:23:16.355Z,23.90
2018-02-10T10:25:43.925Z,23.90
2018-02-10T10:28:11.474Z,23.80
2018-02-10T10:30:39.148Z,23.80
2018-02-10T10:33:06.794Z,23.80
2018-02-10T10:35:34.576Z,27.00
2018-02-10T10:38:02.146Z,28.60
2018-02-10T10:40:29.739Z,28.60
2018-02-10T10:42:57.318Z,28.60
2018-02-10T10:45:25.746Z,28.70
2018-02-10T10:47:53.292Z,28.70
2018-02-10T10:50:20.879Z,28.70
2018-02-10T10:52:48.480Z,28.70
2018-02-10T10:55:16.808Z,28.60
2018-02-10T10:57:44.410Z,28.50
2018-02-10T11:00:12.810Z,27.90
2018-02-10T11:02:41.316Z,28.00
2018-02-10T11:05:08.946Z,28.20
2018-02-10T11:07:37.308Z,28.60
2018-02-10T11:10:05.044Z,28.60
2018-02-10T11:12:32.636Z,27.90
2018-02-10T11:15:00.176Z,28.50
2018-02-10T11:17:27.770Z,28.60
2018-02-10T11:19:56.098Z,28.40
2018-02-10T11:22:23.686Z,28.40
2018-02-10T11:24:51.278Z,28.40
2018-02-10T11:27:18.884Z,28.50
2018-02-10T11:29:46.430Z,28.40
2018-02-10T11:32:14.004Z,28.60
2018-02-10T11:34:41.680Z,28.70
2018-02-10T11:37:09.528Z,28.70
2018-02-10T11:39:37.094Z,28.80
2018-02-10T11:42:04.664Z,28.70
2018-02-10T11:44:32.255Z,29.20
2018-02-10T11:47:00.592Z,29.10
2018-02-10T11:49:28.160Z,29.30
2018-02-10T11:51:55.692Z,29.70
2018-02-10T11:54:23.294Z,29.50
2018-02-10T11:56:50.901Z,29.00
2018-02-10T11:59:18.616Z,28.70
2018-02-10T12:01:46.181Z,28.70
2018-02-10T12:04:14.492Z,29.70
2018-02-10T12:06:42.151Z,29.70
2018-02-10T12:09:09.730Z,29.10
2018-02-10T12:11:37.313Z,29.10
2018-02-10T12:14:04.860Z,29.30
2018-02-10T12:16:32.461Z,29.10
2018-02-10T12:19:00.813Z,28.50
2018-02-10T12:21:28.406Z,28.50
2018-02-10T12:23:55.976Z,28.50
2018-02-10T12:26:23.547Z,28.50
2018-02-10T12:28:51.156Z,28.50
2018-02-10T12:31:18.852Z,28.50
2018-02-10T12:33:47.222Z,28.50
2018-02-10T12:36:15.529Z,28.50
2018-02-10T12:38:43.097Z,28.40
2018-02-10T12:41:10.719Z,28.40
2018-02-10T12:43:39.027Z,28.50
2018-02-10T12:46:06.660Z,28.40
2018-02-10T12:48:40.910Z,27.20
2018-02-10T12:51:08.693Z,27.20
2018-02-10T12:53:36.248Z,27.30
2018-02-10T12:56:03.822Z,27.40
2018-02-10T12:58:31.427Z,27.40
2018-02-10T13:00:58.998Z,27.40
2018-02-10T13:03:26.580Z,27.40
2018-02-10T13:05:54.178Z,27.40
2018-02-10T13:08:21.766Z,27.30
2018-02-10T13:10:50.076Z,27.50
2018-02-10T13:13:17.623Z,27.60
2018-02-10T13:15:45.211Z,27.40
2018-02-10T13:18:12.851Z,27.30
2018-02-10T13:20:41.136Z,27.10
2018-02-10T13:23:08.730Z,27.20
2018-02-10T13:25:36.293Z,27.20
2018-02-10T13:28:03.875Z,27.20
2018-02-10T13:30:32.195Z,27.20
2018-02-10T13:32:59.802Z,27.20
2018-02-10T13:35:27.411Z,27.20
2018-02-10T13:37:54.978Z,27.20
2018-02-10T13:40:22.557Z,27.20
2018-02-10T13:42:50.167Z,27.20
2018-02-10T13:45:18.494Z,27.20
2018-02-10T13:47:46.093Z,27.20
2018-02-10T13:50:13.674Z,28.30
2018-02-10T13:52:43.847Z,28.50
2018-02-10T13:55:11.399Z,28.50
2018-02-10T13:57:38.979Z,28.50
2018-02-10T14:00:08.099Z,28.30
2018-02-10T14:02:35.713Z,28.40
2018-02-10T14:05:03.315Z,28.40
2018-02-10T14:07:32.029Z,27.20
2018-02-10T14:09:59.616Z,27.20
2018-02-10T14:12:27.206Z,27.30
2018-02-10T14:14:54.753Z,28.40
2018-02-10T14:17:22.367Z,28.40
2018-02-10T14:19:49.929Z,27.70
2018-02-10T14:22:17.490Z,27.30
2018-02-10T14:24:45.114Z,27.10
2018-02-10T14:27:13.517Z,26.70
2018-02-10T14:29:41.093Z,26.80
2018-02-10T14:32:08.850Z,26.80
2018-02-10T14:34:36.483Z,26.80
2018-02-10T14:37:04.837Z,26.80
2018-02-10T14:39:33.915Z,26.70
2018-02-10T14:42:01.522Z,26.80
2018-02-10T14:44:30.161Z,27.50
2018-02-10T14:46:57.748Z,27.40
2018-02-10T14:49:25.457Z,27.60
2018-02-10T14:51:53.201Z,27.20
2018-02-10T14:54:20.769Z,28.40
2018-02-10T14:56:48.321Z,28.40
2018-02-10T14:59:15.991Z,28.40
2018-02-10T15:01:43.542Z,33.90
2018-02-10T15:04:11.143Z,32.20
2018-02-10T15:06:38.717Z,30.40
2018-02-10T15:09:07.082Z,30.00
2018-02-10T15:11:34.731Z,30.00
2018-02-10T15:14:02.306Z,30.50
2018-02-10T15:16:29.895Z,30.00
2018-02-10T15:18:57.678Z,29.40
2018-02-10T15:21:26.020Z,28.40
2018-02-10T15:23:53.571Z,28.40
2018-02-10T15:26:21.200Z,28.40
2018-02-10T15:28:48.761Z,28.30
2018-02-10T15:31:25.837Z,28.30
2018-02-10T15:34:05.281Z,28.30
2018-02-10T15:36:32.886Z,28.30
2018-02-10T15:39:00.523Z,28.30
2018-02-10T15:41:28.288Z,28.30
2018-02-10T15:43:55.867Z,27.80
2018-02-10T15:46:23.425Z,27.70
2018-02-10T15:48:51.034Z,27.70
2018-02-10T15:51:18.608Z,27.50
2018-02-10T15:53:46.216Z,27.20
2018-02-10T15:56:13.824Z,27.40
2018-02-10T15:58:41.390Z,26.90
2018-02-10T16:01:08.978Z,27.00
2018-02-10T16:03:36.548Z,26.90
2018-02-10T16:06:04.129Z,27.00
2018-02-10T16:08:32.781Z,27.10
2018-02-10T16:11:00.357Z,26.50
2018-02-10T16:13:27.912Z,26.80
2018-02-10T16:15:55.618Z,26.70
2018-02-10T16:18:23.262Z,27.40
2018-02-10T16:20:51.606Z,27.50
2018-02-10T16:23:19.322Z,27.50
2018-02-10T16:25:46.892Z,27.40
2018-02-10T16:28:14.430Z,27.30
2018-02-10T16:30:42.042Z,27.40
2018-02-10T16:33:09.596Z,27.00
2018-02-10T16:35:37.204Z,27.20
2018-02-10T16:38:05.916Z,28.50
2018-02-10T16:40:33.586Z,28.40
2018-02-10T16:43:01.215Z,29.60
2018-02-10T16:45:29.543Z,35.90
2018-02-10T16:47:57.179Z,36.00
2018-02-10T16:50:24.749Z,30.00
2018-02-10T16:52:52.368Z,29.80
2018-02-10T16:55:20.740Z,28.50
2018-02-10T16:57:48.370Z,28.40
2018-02-10T17:00:16.206Z,28.50
2018-02-10T17:02:43.746Z,28.60
2018-02-10T17:05:12.084Z,28.70
2018-02-10T17:07:39.677Z,28.60
2018-02-10T17:10:08.038Z,27.30
2018-02-10T17:12:36.432Z,27.20
2018-02-10T17:15:04.774Z,28.90
2018-02-10T17:17:34.139Z,28.90
2018-02-10T17:20:01.712Z,28.80
2018-02-10T17:22:29.362Z,28.70
2018-02-10T17:24:56.928Z,26.50
2018-02-10T17:27:24.526Z,25.80
2018-02-10T17:29:52.086Z,25.60
2018-02-10T17:32:19.689Z,26.10
2018-02-10T17:34:47.282Z,26.10
2018-02-10T17:37:15.040Z,28.80
2018-02-10T17:39:42.614Z,27.90
2018-02-10T17:42:10.206Z,27.40
2018-02-10T17:44:38.805Z,26.90
2018-02-10T17:47:07.159Z,25.70
2018-02-10T17:49:34.762Z,25.70
2018-02-10T17:52:02.402Z,25.50
2018-02-10T17:54:30.765Z,24.20
2018-02-10T17:56:58.321Z,24.20
2018-02-10T17:59:26.701Z,24.10
2018-02-10T18:01:54.497Z,24.20
2018-02-10T18:04:22.131Z,26.20
2018-02-10T18:06:50.533Z,25.50
2018-02-10T18:09:18.122Z,24.00
2018-02-10T18:11:45.810Z,24.10
2018-02-10T18:14:13.405Z,24.30
2018-02-10T18:16:41.809Z,24.70
2018-02-10T18:19:09.391Z,24.60
2018-02-10T18:21:37.192Z,25.00
2018-02-10T18:24:04.796Z,25.10
2018-02-10T18:26:32.391Z,25.70
2018-02-10T18:28:59.969Z,25.20
2018-02-10T18:31:28.476Z,25.40
2018-02-10T18:33:56.811Z,25.50
2018-02-10T18:36:24.379Z,25.50
2018-02-10T18:38:52.019Z,25.40
2018-02-10T18:41:19.615Z,25.50
2018-02-10T18:43:47.965Z,25.50
2018-02-10T18:46:15.579Z,25.50
2018-02-10T18:48:43.176Z,25.50
2018-02-10T18:51:10.987Z,25.60
2018-02-10T18:53:39.357Z,25.80
2018-02-10T18:56:07.715Z,25.90
2018-02-10T18:58:35.345Z,25.90
2018-02-10T19:01:03.005Z,26.00
2018-02-10T19:03:30.583Z,26.10
2018-02-10T19:05:58.175Z,26.10
2018-02-10T19:08:25.789Z,26.30
2018-02-10T19:10:53.470Z,26.40
2018-02-10T19:13:21.057Z,26.40
2018-02-10T19:15:48.690Z,26.50
2018-02-10T19:18:16.407Z,28.70
2018-02-10T19:20:44.028Z,27.90
2018-02-10T19:23:11.681Z,27.90
2018-02-10T19:25:40.151Z,28.80
2018-02-10T19:28:08.122Z,28.90
2018-02-10T19:30:35.805Z,28.80
2018-02-10T19:33:03.451Z,28.70
2018-02-10T19:35:31.065Z,28.70
2018-02-10T19:37:58.663Z,28.70
2018-02-10T19:40:26.279Z,28.70
2018-02-10T19:42:54.699Z,28.60
2018-02-10T19:45:22.332Z,28.60
2018-02-10T19:47:49.917Z,28.60
2018-02-10T19:50:17.568Z,29.20
2018-02-10T19:52:45.283Z,29.60
2018-02-10T19:55:13.160Z,30.40
2018-02-10T19:57:40.817Z,31.40
2018-02-10T20:00:09.357Z,32.00
2018-02-10T20:02:36.955Z,32.10
2018-02-10T20:05:04.585Z,31.90
2018-02-10T20:07:32.225Z,32.40
2018-02-10T20:09:59.885Z,32.00
2018-02-10T20:12:27.519Z,32.00
2018-02-10T20:14:55.966Z,31.60
2018-02-10T20:17:26.059Z,31.70
2018-02-10T20:19:53.790Z,30.60
2018-02-10T20:22:21.483Z,29.90
2018-02-10T20:24:49.105Z,29.70
2018-02-10T20:27:17.665Z,30.00
2018-02-10T20:29:45.285Z,30.00
2018-02-10T20:32:13.048Z,30.00
2018-02-10T20:34:40.627Z,31.00
2018-02-10T20:37:09.005Z,30.80
2018-02-10T20:39:36.597Z,31.10
2018-02-10T20:42:05.007Z,35.30
2018-02-10T20:44:32.575Z,35.40
2018-02-10T20:47:00.701Z,33.20
2018-02-10T20:49:29.841Z,32.80
2018-02-10T20:51:57.443Z,32.90
2018-02-10T20:54:25.235Z,32.10
2018-02-10T20:56:53.619Z,32.10
2018-02-10T20:59:22.857Z,31.80
2018-02-10T21:01:50.441Z,31.80
2018-02-10T21:04:18.041Z,31.60
2018-02-10T21:06:46.459Z,32.10
2018-02-10T21:09:14.059Z,32.00
2018-02-10T21:11:41.700Z,31.80
2018-02-10T21:14:09.337Z,32.10
2018-02-10T21:16:36.962Z,32.00
2018-02-10T21:19:05.349Z,29.00
2018-02-10T21:21:33.222Z,29.00
2018-02-10T21:24:00.967Z,29.60
2018-02-10T21:26:28.563Z,29.00
2018-02-10T21:28:56.173Z,29.00
2018-02-10T21:31:23.773Z,29.00
2018-02-10T21:33:51.568Z,29.00
2018-02-10T21:36:19.169Z,29.00
2018-02-10T21:38:47.091Z,28.90
2018-02-10T21:41:14.693Z,28.90
2018-02-10T21:43:42.261Z,29.50
2018-02-10T21:46:09.871Z,28.90
2018-02-10T21:48:37.453Z,28.90
2018-02-10T21:51:05.179Z,28.90
2018-02-10T21:53:32.798Z,28.90
2018-02-10T21:56:00.415Z,28.70
2018-02-10T21:58:28.147Z,28.60
2018-02-10T22:00:55.914Z,28.60
2018-02-10T22:03:23.583Z,37.70
2018-02-10T22:05:51.162Z,32.60
2018-02-10T22:08:18.759Z,29.60
2018-02-10T22:10:47.162Z,29.50
2018-02-10T22:13:15.550Z,29.50
2018-02-10T22:15:43.130Z,29.50
2018-02-10T22:18:10.709Z,29.50
2018-02-10T22:20:38.328Z,29.50
2018-02-10T22:23:05.917Z,29.40
2018-02-10T22:25:33.803Z,29.30
2018-02-10T22:28:01.392Z,29.20
2018-02-10T22:30:28.972Z,29.20
2018-02-10T22:32:57.333Z,29.30
2018-02-10T22:35:24.940Z,29.30
2018-02-10T22:37:52.546Z,29.30
2018-02-10T22:40:20.352Z,31.70
2018-02-10T22:42:47.907Z,30.10
2018-02-10T22:45:15.454Z,29.80
2018-02-10T22:47:43.819Z,29.00
2018-02-10T22:50:11.419Z,29.00
2018-02-10T22:52:38.976Z,28.80
2018-02-10T22:55:06.689Z,28.80
2018-02-10T22:57:34.233Z,28.70
2018-02-10T23:00:01.810Z,28.70
2018-02-10T23:02:29.390Z,28.70
2018-02-10T23:04:57.823Z,28.70
2018-02-10T23:07:25.406Z,28.70
2018-02-10T23:09:52.967Z,28.60
2018-02-10T23:12:20.784Z,28.60
2018-02-10T23:14:48.334Z,29.10
2018-02-10T23:17:15.950Z,28.60
2018-02-10T23:19:45.040Z,28.50
2018-02-10T23:22:12.586Z,28.50
2018-02-10T23:24:40.173Z,28.50
2018-02-10T23:27:07.734Z,28.50
2018-02-10T23:29:36.099Z,28.50
2018-02-10T23:32:03.738Z,28.50
2018-02-10T23:34:31.320Z,28.50
2018-02-10T23:36:58.886Z,28.40
2018-02-10T23:39:26.566Z,28.40
2018-02-10T23:41:54.902Z,29.00
2018-02-10T23:44:22.467Z,28.40
2018-02-10T23:46:50.030Z,28.40
2018-02-10T23:49:17.757Z,28.40
2018-02-10T23:51:45.352Z,28.40
2018-02-10T23:54:13.100Z,28.40
2018-02-10T23:56:40.707Z,28.40
2018-02-10T23:59:09.564Z,29.00
